sensor_id;sensor_type;location;lat;lon;timestamp;pressure;altitude;pressure_sealevel;temperature;humidity
66887;BME280;53798;51.680;5.976;2022-09-21T00:01:25;102529.72;;;10.25;83.83
66887;BME280;53798;51.680;5.976;2022-09-21T00:03:59;102533.25;;;10.26;83.93
66887;BME280;53798;51.680;5.976;2022-09-21T00:06:30;102527.09;;;10.24;83.88
66887;BME280;53798;51.680;5.976;2022-09-21T00:08:59;102523.59;;;10.25;83.85
66887;BME280;53798;51.680;5.976;2022-09-21T00:11:32;102533.22;;;10.24;83.92
66887;BME280;53798;51.680;5.976;2022-09-21T00:14:03;102526.19;;;10.23;84.08
66887;BME280;53798;51.680;5.976;2022-09-21T00:16:34;102529.75;;;10.22;84.16
66887;BME280;53798;51.680;5.976;2022-09-21T00:19:02;102532.38;;;10.21;84.01
66887;BME280;53798;51.680;5.976;2022-09-21T00:21:32;102532.38;;;10.21;84.11
66887;BME280;53798;51.680;5.976;2022-09-21T00:24:00;102528.84;;;10.19;84.28
66887;BME280;53798;51.680;5.976;2022-09-21T00:26:29;102528.84;;;10.19;84.30
66887;BME280;53798;51.680;5.976;2022-09-21T00:28:58;102531.47;;;10.19;84.37
66887;BME280;53798;51.680;5.976;2022-09-21T00:31:28;102531.47;;;10.19;84.21
66887;BME280;53798;51.680;5.976;2022-09-21T00:33:57;102539.38;;;10.19;84.48
66887;BME280;53798;51.680;5.976;2022-09-21T00:36:26;102527.97;;;10.18;84.65
66887;BME280;53798;51.680;5.976;2022-09-21T00:38:57;102531.50;;;10.20;84.53
66887;BME280;53798;51.680;5.976;2022-09-21T00:41:28;102528.88;;;10.20;84.49
66887;BME280;53798;51.680;5.976;2022-09-21T00:44:31;102527.09;;;10.18;84.50
66887;BME280;53798;51.680;5.976;2022-09-21T00:49:56;102533.25;;;10.15;84.62
66887;BME280;53798;51.680;5.976;2022-09-21T00:52:28;102528.00;;;10.12;84.96
66887;BME280;53798;51.680;5.976;2022-09-21T00:55:04;102532.38;;;10.12;84.82
66887;BME280;53798;51.680;5.976;2022-09-21T00:57:37;102535.03;;;10.12;84.84
66887;BME280;53798;51.680;5.976;2022-09-21T01:00:08;102533.28;;;10.09;84.89
66887;BME280;53798;51.680;5.976;2022-09-21T01:02:36;102536.78;;;10.06;84.78
66887;BME280;53798;51.680;5.976;2022-09-21T01:05:07;102533.25;;;10.03;84.98
66887;BME280;53798;51.680;5.976;2022-09-21T01:07:39;102535.91;;;10.01;85.08
66887;BME280;53798;51.680;5.976;2022-09-21T01:10:12;102534.16;;;9.95;85.27
66887;BME280;53798;51.680;5.976;2022-09-21T01:15:38;102533.28;;;9.90;85.44
66887;BME280;53798;51.680;5.976;2022-09-21T01:18:27;102541.19;;;9.86;85.16
66887;BME280;53798;51.680;5.976;2022-09-21T01:29:51;102541.19;;;9.78;85.56
66887;BME280;53798;51.680;5.976;2022-09-21T01:32:25;102541.19;;;9.73;85.41
66887;BME280;53798;51.680;5.976;2022-09-21T01:35:19;102542.06;;;9.71;85.65
66887;BME280;53798;51.680;5.976;2022-09-21T01:37:54;102539.44;;;9.68;85.54
66887;BME280;53798;51.680;5.976;2022-09-21T01:40:40;102542.06;;;9.68;85.63
66887;BME280;53798;51.680;5.976;2022-09-21T01:43:19;102542.06;;;9.66;85.83
66887;BME280;53798;51.680;5.976;2022-09-21T01:45:52;102546.47;;;9.64;86.08
66887;BME280;53798;51.680;5.976;2022-09-21T01:48:23;102546.44;;;9.61;86.18
66887;BME280;53798;51.680;5.976;2022-09-21T01:50:55;102540.28;;;9.59;86.37
66887;BME280;53798;51.680;5.976;2022-09-21T01:56:13;102549.06;;;9.62;86.68
66887;BME280;53798;51.680;5.976;2022-09-21T02:02:12;102541.19;;;9.61;86.62
66887;BME280;53798;51.680;5.976;2022-09-21T02:04:45;102543.78;;;9.58;86.55
66887;BME280;53798;51.680;5.976;2022-09-21T02:07:14;102544.69;;;9.55;86.54
66887;BME280;53798;51.680;5.976;2022-09-21T02:09:43;102545.56;;;9.51;86.47
66887;BME280;53798;51.680;5.976;2022-09-21T02:12:13;102539.41;;;9.47;86.35
66887;BME280;53798;51.680;5.976;2022-09-21T02:14:45;102545.53;;;9.46;86.30
66887;BME280;53798;51.680;5.976;2022-09-21T02:17:35;102549.03;;;9.44;86.43
66887;BME280;53798;51.680;5.976;2022-09-21T02:20:24;102548.16;;;9.40;86.46
66887;BME280;53798;51.680;5.976;2022-09-21T02:23:02;102538.50;;;9.36;86.70
66887;BME280;53798;51.680;5.976;2022-09-21T02:25:46;102542.00;;;9.33;86.53
66887;BME280;53798;51.680;5.976;2022-09-21T02:28:43;102539.38;;;9.30;86.84
66887;BME280;53798;51.680;5.976;2022-09-21T02:31:32;102542.00;;;9.27;86.67
66887;BME280;53798;51.680;5.976;2022-09-21T02:37:22;102546.38;;;9.24;87.53
66887;BME280;53798;51.680;5.976;2022-09-21T02:42:40;102541.97;;;9.15;87.14
66887;BME280;53798;51.680;5.976;2022-09-21T02:45:13;102541.97;;;9.09;87.42
66887;BME280;53798;51.680;5.976;2022-09-21T02:48:24;102543.66;;;9.00;87.18
66887;BME280;53798;51.680;5.976;2022-09-21T02:50:58;102534.00;;;8.93;87.01
66887;BME280;53798;51.680;5.976;2022-09-21T02:53:34;102542.75;;;8.91;87.43
66887;BME280;53798;51.680;5.976;2022-09-21T02:56:05;102539.25;;;8.87;87.25
66887;BME280;53798;51.680;5.976;2022-09-21T02:58:37;102533.09;;;8.83;87.31
66887;BME280;53798;51.680;5.976;2022-09-21T03:01:10;102534.84;;;8.81;87.67
66887;BME280;53798;51.680;5.976;2022-09-21T03:03:41;102535.72;;;8.80;88.04
66887;BME280;53798;51.680;5.976;2022-09-21T03:06:08;102535.69;;;8.77;88.08
66887;BME280;53798;51.680;5.976;2022-09-21T03:08:35;102539.19;;;8.75;88.04
66887;BME280;53798;51.680;5.976;2022-09-21T03:11:02;102533.03;;;8.69;88.11
66887;BME280;53798;51.680;5.976;2022-09-21T03:13:29;102534.75;;;8.66;87.92
66887;BME280;53798;51.680;5.976;2022-09-21T03:16:05;102540.88;;;8.62;88.22
66887;BME280;53798;51.680;5.976;2022-09-21T03:18:33;102539.97;;;8.57;88.13
66887;BME280;53798;51.680;5.976;2022-09-21T03:21:00;102542.59;;;8.50;87.87
66887;BME280;53798;51.680;5.976;2022-09-21T03:23:28;102539.00;;;8.44;88.05
66887;BME280;53798;51.680;5.976;2022-09-21T03:25:56;102538.09;;;8.38;87.95
66887;BME280;53798;51.680;5.976;2022-09-21T03:28:23;102545.94;;;8.32;88.15
66887;BME280;53798;51.680;5.976;2022-09-21T03:30:50;102545.91;;;8.26;88.21
66887;BME280;53798;51.680;5.976;2022-09-21T03:33:18;102549.38;;;8.22;88.46
66887;BME280;53798;51.680;5.976;2022-09-21T03:35:52;102544.94;;;8.16;88.46
66887;BME280;53798;51.680;5.976;2022-09-21T03:38:21;102550.16;;;8.12;88.64
66887;BME280;53798;51.680;5.976;2022-09-21T03:40:48;102554.53;;;8.09;88.65
66887;BME280;53798;51.680;5.976;2022-09-21T03:43:16;102555.41;;;8.07;88.74
66887;BME280;53798;51.680;5.976;2022-09-21T03:45:44;102556.25;;;8.03;88.77
66887;BME280;53798;51.680;5.976;2022-09-21T03:48:11;102558.84;;;7.98;88.75
66887;BME280;53798;51.680;5.976;2022-09-21T03:50:38;102558.81;;;7.95;88.89
66887;BME280;53798;51.680;5.976;2022-09-21T03:53:06;102557.06;;;7.94;88.98
66887;BME280;53798;51.680;5.976;2022-09-21T03:55:34;102564.06;;;7.93;89.17
66887;BME280;53798;51.680;5.976;2022-09-21T03:58:01;102559.66;;;7.89;89.29
66887;BME280;53798;51.680;5.976;2022-09-21T04:00:29;102559.59;;;7.85;88.95
66887;BME280;53798;51.680;5.976;2022-09-21T04:02:56;102562.16;;;7.78;89.05
66887;BME280;53798;51.680;5.976;2022-09-21T04:05:24;102562.13;;;7.72;89.00
66887;BME280;53798;51.680;5.976;2022-09-21T04:07:53;102562.06;;;7.66;88.96
66887;BME280;53798;51.680;5.976;2022-09-21T04:10:23;102551.53;;;7.61;89.04
66887;BME280;53798;51.680;5.976;2022-09-21T04:13:00;102562.84;;;7.57;89.10
66887;BME280;53798;51.680;5.976;2022-09-21T04:15:28;102551.44;;;7.52;89.15
66887;BME280;53798;51.680;5.976;2022-09-21T04:17:55;102554.88;;;7.50;89.42
66887;BME280;53798;51.680;5.976;2022-09-21T04:20:23;102553.13;;;7.45;89.36
66887;BME280;53798;51.680;5.976;2022-09-21T04:22:50;102554.84;;;7.43;89.47
66887;BME280;53798;51.680;5.976;2022-09-21T04:25:18;102553.06;;;7.41;89.78
66887;BME280;53798;51.680;5.976;2022-09-21T04:27:46;102553.91;;;7.38;89.60
66887;BME280;53798;51.680;5.976;2022-09-21T04:30:15;102551.22;;;7.34;89.69
66887;BME280;53798;51.680;5.976;2022-09-21T04:32:43;102560.81;;;7.30;89.48
66887;BME280;53798;51.680;5.976;2022-09-21T04:35:11;102564.28;;;7.27;89.78
66887;BME280;53798;51.680;5.976;2022-09-21T04:37:38;102560.75;;;7.24;89.91
66887;BME280;53798;51.680;5.976;2022-09-21T04:40:06;102562.47;;;7.20;89.99
66887;BME280;53798;51.680;5.976;2022-09-21T04:42:35;102557.19;;;7.17;89.99
66887;BME280;53798;51.680;5.976;2022-09-21T04:45:03;102569.44;;;7.17;89.89
66887;BME280;53798;51.680;5.976;2022-09-21T04:47:32;102564.16;;;7.15;90.06
66887;BME280;53798;51.680;5.976;2022-09-21T04:50:01;102565.00;;;7.12;90.09
66887;BME280;53798;51.680;5.976;2022-09-21T04:52:28;102572.88;;;7.12;90.08
66887;BME280;53798;51.680;5.976;2022-09-21T04:54:56;102580.72;;;7.11;90.11
66887;BME280;53798;51.680;5.976;2022-09-21T04:57:23;102589.47;;;7.10;90.17
66887;BME280;53798;51.680;5.976;2022-09-21T04:59:50;102586.78;;;7.07;90.18
66887;BME280;53798;51.680;5.976;2022-09-21T05:02:17;102587.66;;;7.07;90.26
66887;BME280;53798;51.680;5.976;2022-09-21T05:04:44;102584.16;;;7.05;90.13
66887;BME280;53798;51.680;5.976;2022-09-21T05:07:17;102587.63;;;7.04;90.21
66887;BME280;53798;51.680;5.976;2022-09-21T05:09:44;102580.69;;;7.06;90.11
66887;BME280;53798;51.680;5.976;2022-09-21T05:12:31;102585.88;;;7.05;90.43
66887;BME280;53798;51.680;5.976;2022-09-21T05:15:00;102587.63;;;7.04;90.12
66887;BME280;53798;51.680;5.976;2022-09-21T05:17:28;102590.25;;;7.04;90.44
66887;BME280;53798;51.680;5.976;2022-09-21T05:19:58;102595.50;;;7.04;90.43
66887;BME280;53798;51.680;5.976;2022-09-21T05:22:26;102588.50;;;7.02;90.17
66887;BME280;53798;51.680;5.976;2022-09-21T05:24:54;102594.59;;;7.01;90.15
66887;BME280;53798;51.680;5.976;2022-09-21T05:27:21;102598.06;;;6.99;90.03
66887;BME280;53798;51.680;5.976;2022-09-21T05:29:48;102594.53;;;6.96;89.98
66887;BME280;53798;51.680;5.976;2022-09-21T05:32:40;102590.16;;;6.96;89.98
66887;BME280;53798;51.680;5.976;2022-09-21T05:38:02;102598.00;;;6.95;90.03
66887;BME280;53798;51.680;5.976;2022-09-21T05:40:36;102605.03;;;6.96;90.07
66887;BME280;53798;51.680;5.976;2022-09-21T05:43:07;102607.66;;;6.99;90.01
66887;BME280;53798;51.680;5.976;2022-09-21T05:45:43;102616.44;;;7.03;90.17
66887;BME280;53798;51.680;5.976;2022-09-21T05:48:18;102616.44;;;7.03;90.23
66887;BME280;53798;51.680;5.976;2022-09-21T05:51:05;102625.31;;;7.11;90.35
66887;BME280;53798;51.680;5.976;2022-09-21T05:53:55;102619.16;;;7.10;90.47
66887;BME280;53798;51.680;5.976;2022-09-21T05:59:36;102631.44;;;7.11;90.42
66887;BME280;53798;51.680;5.976;2022-09-21T06:05:06;102641.13;;;7.15;90.45
66887;BME280;53798;51.680;5.976;2022-09-21T06:07:37;102635.88;;;7.15;90.44
66887;BME280;53798;51.680;5.976;2022-09-21T06:10:05;102639.34;;;7.16;90.42
66887;BME280;53798;51.680;5.976;2022-09-21T06:12:33;102644.59;;;7.18;90.28
66887;BME280;53798;51.680;5.976;2022-09-21T06:15:00;102642.91;;;7.20;90.22
66887;BME280;53798;51.680;5.976;2022-09-21T06:17:27;102648.19;;;7.21;90.25
66887;BME280;53798;51.680;5.976;2022-09-21T06:19:54;102648.19;;;7.24;90.14
66887;BME280;53798;51.680;5.976;2022-09-21T06:22:22;102653.50;;;7.27;90.30
66887;BME280;53798;51.680;5.976;2022-09-21T06:24:49;102654.44;;;7.34;90.25
66887;BME280;53798;51.680;5.976;2022-09-21T06:27:16;102648.34;;;7.38;90.53
66887;BME280;53798;51.680;5.976;2022-09-21T06:29:43;102655.47;;;7.49;90.38
66887;BME280;53798;51.680;5.976;2022-09-21T06:32:11;102648.63;;;7.60;90.14
66887;BME280;53798;51.680;5.976;2022-09-21T06:34:38;102640.81;;;7.68;90.25
66887;BME280;53798;51.680;5.976;2022-09-21T06:37:05;102652.31;;;7.77;90.16
66887;BME280;53798;51.680;5.976;2022-09-21T06:39:32;102651.56;;;7.89;90.22
66887;BME280;53798;51.680;5.976;2022-09-21T06:41:59;102652.50;;;7.99;90.17
66887;BME280;53798;51.680;5.976;2022-09-21T06:44:27;102644.78;;;8.13;90.20
66887;BME280;53798;51.680;5.976;2022-09-21T06:46:55;102640.50;;;8.28;90.29
66887;BME280;53798;51.680;5.976;2022-09-21T06:49:22;102639.72;;;8.38;90.34
66887;BME280;53798;51.680;5.976;2022-09-21T06:51:49;102641.59;;;8.51;90.50
66887;BME280;53798;51.680;5.976;2022-09-21T06:54:16;102646.94;;;8.64;90.30
66887;BME280;53798;51.680;5.976;2022-09-21T06:56:44;102644.38;;;8.76;90.18
66887;BME280;53798;51.680;5.976;2022-09-21T06:59:11;102642.69;;;8.88;90.05
66887;BME280;53798;51.680;5.976;2022-09-21T07:01:38;102640.13;;;9.00;90.14
66887;BME280;53798;51.680;5.976;2022-09-21T07:04:07;102641.94;;;9.12;90.11
66887;BME280;53798;51.680;5.976;2022-09-21T07:06:35;102642.00;;;9.27;89.71
66887;BME280;53798;51.680;5.976;2022-09-21T07:09:02;102637.66;;;9.42;89.65
66887;BME280;53798;51.680;5.976;2022-09-21T07:11:49;102638.59;;;9.55;89.38
66887;BME280;53798;51.680;5.976;2022-09-21T07:14:16;102644.78;;;9.66;89.26
66887;BME280;53798;51.680;5.976;2022-09-21T07:16:43;102645.69;;;9.79;89.35
66887;BME280;53798;51.680;5.976;2022-09-21T07:19:10;102644.78;;;9.92;88.97
66887;BME280;53798;51.680;5.976;2022-09-21T07:21:38;102645.72;;;10.05;88.97
66887;BME280;53798;51.680;5.976;2022-09-21T07:24:05;102641.31;;;10.17;88.62
66887;BME280;53798;51.680;5.976;2022-09-21T07:26:38;102636.94;;;10.30;88.47
66887;BME280;53798;51.680;5.976;2022-09-21T07:29:05;102643.97;;;10.43;88.38
66887;BME280;53798;51.680;5.976;2022-09-21T07:31:32;102641.34;;;10.57;88.03
66887;BME280;53798;51.680;5.976;2022-09-21T07:33:59;102633.38;;;10.69;87.89
66887;BME280;53798;51.680;5.976;2022-09-21T07:36:26;102629.84;;;10.81;87.43
66887;BME280;53798;51.680;5.976;2022-09-21T07:38:53;102629.78;;;10.94;86.81
66887;BME280;53798;51.680;5.976;2022-09-21T07:41:20;102634.16;;;11.06;86.49
66887;BME280;53798;51.680;5.976;2022-09-21T07:43:48;102635.00;;;11.17;86.09
66887;BME280;53798;51.680;5.976;2022-09-21T07:46:15;102629.66;;;11.31;85.98
66887;BME280;53798;51.680;5.976;2022-09-21T07:48:42;102619.91;;;11.44;85.75
66887;BME280;53798;51.680;5.976;2022-09-21T07:51:11;102625.13;;;11.56;85.18
66887;BME280;53798;51.680;5.976;2022-09-21T07:53:41;102626.78;;;11.68;84.88
66887;BME280;53798;51.680;5.976;2022-09-21T07:56:15;102622.31;;;11.81;83.85
66887;BME280;53798;51.680;5.976;2022-09-21T07:58:43;102618.72;;;11.90;83.84
66887;BME280;53798;51.680;5.976;2022-09-21T08:01:29;102624.88;;;12.00;83.24
66887;BME280;53798;51.680;5.976;2022-09-21T08:03:57;102623.91;;;12.10;82.46
66887;BME280;53798;51.680;5.976;2022-09-21T08:06:27;102626.47;;;12.19;82.53
66887;BME280;53798;51.680;5.976;2022-09-21T08:09:01;102622.84;;;12.30;82.39
66887;BME280;53798;51.680;5.976;2022-09-21T08:11:30;102628.00;;;12.42;81.66
66887;BME280;53798;51.680;5.976;2022-09-21T08:14:01;102620.84;;;12.53;80.61
66887;BME280;53798;51.680;5.976;2022-09-21T08:16:30;102627.81;;;12.62;80.54
66887;BME280;53798;51.680;5.976;2022-09-21T08:18:57;102622.41;;;12.73;80.08
66887;BME280;53798;51.680;5.976;2022-09-21T08:21:24;102622.25;;;12.85;79.72
66887;BME280;53798;51.680;5.976;2022-09-21T08:23:51;102616.81;;;12.99;79.52
66887;BME280;53798;51.680;5.976;2022-09-21T08:26:18;102622.81;;;13.14;79.93
66887;BME280;53798;51.680;5.976;2022-09-21T08:28:47;102619.94;;;13.29;79.91
66887;BME280;53798;51.680;5.976;2022-09-21T08:31:19;102625.09;;;13.45;79.29
66887;BME280;53798;51.680;5.976;2022-09-21T08:33:47;102621.34;;;13.58;77.22
66887;BME280;53798;51.680;5.976;2022-09-21T08:36:18;102626.47;;;13.71;76.91
66887;BME280;53798;51.680;5.976;2022-09-21T08:38:45;102622.78;;;13.81;77.03
66887;BME280;53798;51.680;5.976;2022-09-21T08:41:17;102627.94;;;13.92;75.84
66887;BME280;53798;51.680;5.976;2022-09-21T08:46:26;102627.66;;;14.07;73.77
66887;BME280;53798;51.680;5.976;2022-09-21T08:48:57;102622.28;;;14.13;71.88
66887;BME280;53798;51.680;5.976;2022-09-21T08:51:35;102623.91;;;14.21;69.60
66887;BME280;53798;51.680;5.976;2022-09-21T08:54:18;102622.84;;;14.31;68.23
66887;BME280;53798;51.680;5.976;2022-09-21T08:56:52;102628.91;;;14.39;68.62
66887;BME280;53798;51.680;5.976;2022-09-21T08:59:33;102628.81;;;14.44;68.89
66887;BME280;53798;51.680;5.976;2022-09-21T09:02:29;102626.84;;;14.55;69.40
66887;BME280;53798;51.680;5.976;2022-09-21T09:08:30;102628.22;;;14.77;63.60
66887;BME280;53798;51.680;5.976;2022-09-21T09:14:27;102635.00;;;14.93;62.89
66887;BME280;53798;51.680;5.976;2022-09-21T09:20:38;102637.28;;;15.12;63.82
66887;BME280;53798;51.680;5.976;2022-09-21T09:23:24;102639.69;;;15.22;61.74
66887;BME280;53798;51.680;5.976;2022-09-21T09:26:03;102635.22;;;15.25;61.46
66887;BME280;53798;51.680;5.976;2022-09-21T09:29:23;102635.94;;;15.33;59.58
66887;BME280;53798;51.680;5.976;2022-09-21T09:31:59;102641.19;;;15.36;61.43
66887;BME280;53798;51.680;5.976;2022-09-21T09:34:34;102640.94;;;15.47;61.31
66887;BME280;53798;51.680;5.976;2022-09-21T09:37:16;102638.97;;;15.57;61.07
66887;BME280;53798;51.680;5.976;2022-09-21T09:39:52;102636.13;;;15.64;61.90
66887;BME280;53798;51.680;5.976;2022-09-21T09:42:40;102635.91;;;15.74;61.53
66887;BME280;53798;51.680;5.976;2022-09-21T09:51:37;102631.66;;;16.04;57.41
66887;BME280;53798;51.680;5.976;2022-09-21T09:54:15;102632.38;;;16.11;56.59
66887;BME280;53798;51.680;5.976;2022-09-21T09:56:45;102633.97;;;16.18;58.80
66887;BME280;53798;51.680;5.976;2022-09-21T09:59:33;102630.03;;;16.33;57.54
66887;BME280;53798;51.680;5.976;2022-09-21T10:02:31;102633.41;;;16.41;58.96
66887;BME280;53798;51.680;5.976;2022-09-21T10:05:03;102626.84;;;16.53;56.34
66887;BME280;53798;51.680;5.976;2022-09-21T10:07:42;102628.44;;;16.60;57.52
66887;BME280;53798;51.680;5.976;2022-09-21T10:10:33;102628.16;;;16.71;58.51
66887;BME280;53798;51.680;5.976;2022-09-21T10:15:58;102627.81;;;16.84;58.76
66887;BME280;53798;51.680;5.976;2022-09-21T10:21:45;102621.97;;;16.38;58.69
66887;BME280;53798;51.680;5.976;2022-09-21T10:24:21;102622.41;;;16.19;57.85
66887;BME280;53798;51.680;5.976;2022-09-21T10:27:14;102622.88;;;16.01;57.05
66887;BME280;53798;51.680;5.976;2022-09-21T10:29:44;102625.19;;;16.16;57.67
66887;BME280;53798;51.680;5.976;2022-09-21T10:32:24;102617.44;;;16.41;56.95
66887;BME280;53798;51.680;5.976;2022-09-21T10:35:14;102621.16;;;16.67;56.24
66887;BME280;53798;51.680;5.976;2022-09-21T10:37:45;102614.66;;;16.77;53.85
66887;BME280;53798;51.680;5.976;2022-09-21T10:42:48;102608.69;;;17.01;52.73
66887;BME280;53798;51.680;5.976;2022-09-21T10:45:19;102607.34;;;17.17;51.37
66887;BME280;53798;51.680;5.976;2022-09-21T10:47:56;102605.16;;;17.30;52.80
66887;BME280;53798;51.680;5.976;2022-09-21T10:50:46;102609.94;;;17.19;52.27
66887;BME280;53798;51.680;5.976;2022-09-21T10:53:31;102599.84;;;17.00;49.77
66887;BME280;53798;51.680;5.976;2022-09-21T10:59:19;102592.03;;;17.24;47.78
66887;BME280;53798;51.680;5.976;2022-09-21T11:01:53;102597.50;;;17.19;46.40
66887;BME280;53798;51.680;5.976;2022-09-21T11:04:28;102599.13;;;17.23;47.99
66887;BME280;53798;51.680;5.976;2022-09-21T11:07:08;102601.34;;;17.39;49.71
66887;BME280;53798;51.680;5.976;2022-09-21T11:15:40;102598.16;;;17.83;47.99
66887;BME280;53798;51.680;5.976;2022-09-21T11:21:29;102586.47;;;18.14;44.71
66887;BME280;53798;51.680;5.976;2022-09-21T11:27:12;102591.56;;;18.71;44.86
66887;BME280;53798;51.680;5.976;2022-09-21T11:32:41;102592.63;;;18.90;44.66
66887;BME280;53798;51.680;5.976;2022-09-21T11:35:53;102594.63;;;19.09;45.62
66887;BME280;53798;51.680;5.976;2022-09-21T11:41:32;102588.41;;;19.32;44.54
66887;BME280;53798;51.680;5.976;2022-09-21T11:47:14;102582.97;;;19.34;44.41
66887;BME280;53798;51.680;5.976;2022-09-21T11:50:04;102577.19;;;19.45;41.59
66887;BME280;53798;51.680;5.976;2022-09-21T11:53:13;102572.09;;;19.38;41.26
66887;BME280;53798;51.680;5.976;2022-09-21T11:56:24;102577.63;;;19.34;42.23
66887;BME280;53798;51.680;5.976;2022-09-21T12:02:25;102564.41;;;19.53;43.43
66887;BME280;53798;51.680;5.976;2022-09-21T12:10:57;102559.34;;;19.67;41.53
66887;BME280;53798;51.680;5.976;2022-09-21T12:13:34;102556.19;;;19.58;40.05
66887;BME280;53798;51.680;5.976;2022-09-21T12:16:45;102552.19;;;19.46;40.38
66887;BME280;53798;51.680;5.976;2022-09-21T12:22:43;102550.16;;;19.30;40.69
66887;BME280;53798;51.680;5.976;2022-09-21T12:25:17;102554.94;;;19.22;40.36
66887;BME280;53798;51.680;5.976;2022-09-21T12:27:58;102550.72;;;19.16;41.39
66887;BME280;53798;51.680;5.976;2022-09-21T12:30:46;102542.34;;;19.24;42.88
66887;BME280;53798;51.680;5.976;2022-09-21T12:33:37;102544.25;;;19.44;43.38
66887;BME280;53798;51.680;5.976;2022-09-21T12:39:21;102541.16;;;19.76;41.55
66887;BME280;53798;51.680;5.976;2022-09-21T12:42:33;102531.81;;;19.86;42.05
66887;BME280;53798;51.680;5.976;2022-09-21T12:45:28;102531.31;;;19.98;41.10
66887;BME280;53798;51.680;5.976;2022-09-21T12:48:22;102526.44;;;20.08;41.31
66887;BME280;53798;51.680;5.976;2022-09-21T12:51:09;102518.97;;;20.15;39.19
66887;BME280;53798;51.680;5.976;2022-09-21T12:53:45;102520.59;;;20.19;40.12
66887;BME280;53798;51.680;5.976;2022-09-21T13:08:12;102509.50;;;20.67;41.23
66887;BME280;53798;51.680;5.976;2022-09-21T13:10:47;102512.03;;;20.70;40.05
66887;BME280;53798;51.680;5.976;2022-09-21T13:13:33;102514.59;;;20.73;39.71
66887;BME280;53798;51.680;5.976;2022-09-21T13:16:30;102509.09;;;20.76;39.88
66887;BME280;53798;51.680;5.976;2022-09-21T13:19:03;102508.75;;;20.84;39.25
66887;BME280;53798;51.680;5.976;2022-09-21T13:22:12;102505.84;;;20.88;40.08
66887;BME280;53798;51.680;5.976;2022-09-21T13:25:05;102510.53;;;21.02;40.53
66887;BME280;53798;51.680;5.976;2022-09-21T13:30:31;102509.38;;;21.08;39.27
66887;BME280;53798;51.680;5.976;2022-09-21T13:35:59;102501.53;;;21.22;39.95
66887;BME280;53798;51.680;5.976;2022-09-21T13:52:00;102493.97;;;21.31;39.13
66887;BME280;53798;51.680;5.976;2022-09-21T13:54:49;102487.91;;;21.27;39.37
66887;BME280;53798;51.680;5.976;2022-09-21T14:02:55;102487.00;;;21.26;39.31
66887;BME280;53798;51.680;5.976;2022-09-21T14:05:32;102473.69;;;21.25;38.02
66887;BME280;53798;51.680;5.976;2022-09-21T14:08:18;102476.03;;;21.14;38.53
66887;BME280;53798;51.680;5.976;2022-09-21T14:10:53;102474.47;;;21.09;39.62
66887;BME280;53798;51.680;5.976;2022-09-21T14:13:37;102478.94;;;21.09;38.74
66887;BME280;53798;51.680;5.976;2022-09-21T14:18:55;102478.31;;;21.04;38.95
66887;BME280;53798;51.680;5.976;2022-09-21T14:21:22;102473.81;;;21.04;39.62
66887;BME280;53798;51.680;5.976;2022-09-21T14:29:30;102464.78;;;21.24;40.91
66887;BME280;53798;51.680;5.976;2022-09-21T14:32:00;102466.22;;;21.32;40.80
66887;BME280;53798;51.680;5.976;2022-09-21T14:34:34;102467.94;;;21.33;41.21
66887;BME280;53798;51.680;5.976;2022-09-21T14:37:17;102469.69;;;21.34;40.56
66887;BME280;53798;51.680;5.976;2022-09-21T14:39:57;102459.16;;;21.12;39.97
66887;BME280;53798;51.680;5.976;2022-09-21T14:42:31;102463.03;;;21.06;39.87
66887;BME280;53798;51.680;5.976;2022-09-21T14:45:00;102465.75;;;21.04;40.93
66887;BME280;53798;51.680;5.976;2022-09-21T14:50:42;102454.81;;;21.09;40.42
66887;BME280;53798;51.680;5.976;2022-09-21T14:53:56;102452.59;;;21.00;40.01
66887;BME280;53798;51.680;5.976;2022-09-21T14:56:46;102450.50;;;20.87;40.22
66887;BME280;53798;51.680;5.976;2022-09-21T15:02:43;102447.81;;;20.68;40.43
66887;BME280;53798;51.680;5.976;2022-09-21T15:05:32;102441.66;;;20.66;40.29
66887;BME280;53798;51.680;5.976;2022-09-21T15:08:21;102444.44;;;20.64;40.27
66887;BME280;53798;51.680;5.976;2022-09-21T15:11:28;102441.31;;;20.55;37.97
66887;BME280;53798;51.680;5.976;2022-09-21T15:14:32;102443.31;;;20.30;38.01
66887;BME280;53798;51.680;5.976;2022-09-21T15:17:24;102441.41;;;20.13;39.32
66887;BME280;53798;51.680;5.976;2022-09-21T15:20:00;102435.63;;;20.04;39.48
66887;BME280;53798;51.680;5.976;2022-09-21T15:22:43;102440.22;;;20.00;40.06
66887;BME280;53798;51.680;5.976;2022-09-21T15:25:12;102432.47;;;19.94;40.19
66887;BME280;53798;51.680;5.976;2022-09-21T15:27:42;102431.03;;;19.86;40.38
66887;BME280;53798;51.680;5.976;2022-09-21T15:30:24;102424.97;;;19.81;39.33
66887;BME280;53798;51.680;5.976;2022-09-21T15:32:56;102424.31;;;19.76;40.19
66887;BME280;53798;51.680;5.976;2022-09-21T15:35:31;102419.22;;;19.70;40.04
66887;BME280;53798;51.680;5.976;2022-09-21T15:37:59;102419.81;;;19.56;39.84
66887;BME280;53798;51.680;5.976;2022-09-21T15:40:30;102419.59;;;19.40;39.63
66887;BME280;53798;51.680;5.976;2022-09-21T15:48:21;102418.22;;;19.09;41.04
66887;BME280;53798;51.680;5.976;2022-09-21T15:53:49;102412.78;;;18.88;41.84
66887;BME280;53798;51.680;5.976;2022-09-21T15:56:26;102409.44;;;18.83;42.33
66887;BME280;53798;51.680;5.976;2022-09-21T15:58:58;102412.38;;;18.77;42.96
66887;BME280;53798;51.680;5.976;2022-09-21T16:01:46;102417.78;;;18.75;43.19
66887;BME280;53798;51.680;5.976;2022-09-21T16:04:23;102416.28;;;18.68;43.19
66887;BME280;53798;51.680;5.976;2022-09-21T16:07:02;102416.88;;;18.53;43.44
66887;BME280;53798;51.680;5.976;2022-09-21T16:09:50;102412.25;;;18.34;43.67
66887;BME280;53798;51.680;5.976;2022-09-21T16:12:39;102418.13;;;18.20;44.06
66887;BME280;53798;51.680;5.976;2022-09-21T16:15:25;102415.03;;;18.07;44.77
66887;BME280;53798;51.680;5.976;2022-09-21T16:17:58;102412.84;;;17.93;43.84
66887;BME280;53798;51.680;5.976;2022-09-21T16:20:38;102416.03;;;17.79;43.73